sensor_id;sensor_type;location;lat;lon;timestamp;pressure;altitude;pressure_sealevel;temperature;humidity
65685;BME280;52405;50.844;-1.062;2023-02-18T00:02:07;102610.28;;;11.81;76.44
65685;BME280;52405;50.844;-1.062;2023-02-18T00:04:34;102653.56;;;12.07;76.13
65685;BME280;52405;50.844;-1.062;2023-02-18T00:06:59;102660.38;;;12.05;76.61
65685;BME280;52405;50.844;-1.062;2023-02-18T00:09:24;102657.78;;;12.05;76.40
65685;BME280;52405;50.844;-1.062;2023-02-18T00:11:53;102661.25;;;12.05;76.29
65685;BME280;52405;50.844;-1.062;2023-02-18T00:14:18;102652.56;;;12.05;76.38
65685;BME280;52405;50.844;-1.062;2023-02-18T00:16:44;102641.78;;;11.99;76.87
65685;BME280;52405;50.844;-1.062;2023-02-18T00:19:15;102634.41;;;11.91;76.43
65685;BME280;52405;50.844;-1.062;2023-02-18T00:21:42;102618.56;;;11.88;76.44
65685;BME280;52405;50.844;-1.062;2023-02-18T00:24:12;102645.38;;;12.01;76.97
65685;BME280;52405;50.844;-1.062;2023-02-18T00:26:40;102626.09;;;11.84;76.59
65685;BME280;52405;50.844;-1.062;2023-02-18T00:29:06;102580.53;;;11.62;76.06
65685;BME280;52405;50.844;-1.062;2023-02-18T00:31:33;102631.56;;;11.88;76.22
65685;BME280;52405;50.844;-1.062;2023-02-18T00:34:00;102635.59;;;11.97;76.42
65685;BME280;52405;50.844;-1.062;2023-02-18T00:36:27;102638.00;;;11.93;76.59
65685;BME280;52405;50.844;-1.062;2023-02-18T00:38:55;102645.81;;;11.93;76.53
65685;BME280;52405;50.844;-1.062;2023-02-18T00:41:23;102614.19;;;11.74;76.59
65685;BME280;52405;50.844;-1.062;2023-02-18T00:43:48;102638.91;;;11.81;76.59
65685;BME280;52405;50.844;-1.062;2023-02-18T00:46:17;102626.59;;;11.78;77.07
65685;BME280;52405;50.844;-1.062;2023-02-18T00:48:42;102639.91;;;11.83;76.90
65685;BME280;52405;50.844;-1.062;2023-02-18T00:51:08;102631.31;;;11.84;76.49
65685;BME280;52405;50.844;-1.062;2023-02-18T00:53:38;102632.19;;;11.84;76.87
65685;BME280;52405;50.844;-1.062;2023-02-18T00:56:04;102635.50;;;11.82;76.57
65685;BME280;52405;50.844;-1.062;2023-02-18T00:58:30;102630.91;;;11.77;76.60
65685;BME280;52405;50.844;-1.062;2023-02-18T01:00:56;102622.09;;;11.75;76.69
65685;BME280;52405;50.844;-1.062;2023-02-18T01:03:24;102633.03;;;11.70;76.27
65685;BME280;52405;50.844;-1.062;2023-02-18T01:05:52;102597.47;;;11.55;76.14
65685;BME280;52405;50.844;-1.062;2023-02-18T01:08:19;102582.16;;;11.47;76.84
65685;BME280;52405;50.844;-1.062;2023-02-18T01:10:48;102626.75;;;11.66;76.51
65685;BME280;52405;50.844;-1.062;2023-02-18T01:13:15;102619.56;;;11.62;76.57
65685;BME280;52405;50.844;-1.062;2023-02-18T01:15:43;102631.75;;;11.63;76.34
65685;BME280;52405;50.844;-1.062;2023-02-18T01:18:10;102627.28;;;11.61;76.24
65685;BME280;52405;50.844;-1.062;2023-02-18T01:20:38;102621.88;;;11.57;76.47
65685;BME280;52405;50.844;-1.062;2023-02-18T01:23:04;102608.50;;;11.51;76.02
65685;BME280;52405;50.844;-1.062;2023-02-18T01:25:30;102620.78;;;11.54;76.04
65685;BME280;52405;50.844;-1.062;2023-02-18T01:27:58;102612.59;;;11.48;75.81
65685;BME280;52405;50.844;-1.062;2023-02-18T01:30:24;102618.78;;;11.50;76.20
65685;BME280;52405;50.844;-1.062;2023-02-18T01:32:50;102627.78;;;11.55;75.68
65685;BME280;52405;50.844;-1.062;2023-02-18T01:35:17;102569.72;;;11.28;75.42
65685;BME280;52405;50.844;-1.062;2023-02-18T01:37:46;102620.88;;;11.55;75.54
65685;BME280;52405;50.844;-1.062;2023-02-18T01:40:14;102614.59;;;11.52;76.05
65685;BME280;52405;50.844;-1.062;2023-02-18T01:42:42;102614.88;;;11.56;75.64
65685;BME280;52405;50.844;-1.062;2023-02-18T01:48:12;102612.81;;;11.51;74.74
65685;BME280;52405;50.844;-1.062;2023-02-18T01:50:43;102614.47;;;11.50;75.04
65685;BME280;52405;50.844;-1.062;2023-02-18T01:53:09;102607.75;;;11.54;74.71
65685;BME280;52405;50.844;-1.062;2023-02-18T01:55:37;102620.00;;;11.55;74.56
65685;BME280;52405;50.844;-1.062;2023-02-18T01:58:03;102610.19;;;11.51;74.47
65685;BME280;52405;50.844;-1.062;2023-02-18T02:00:28;102579.72;;;11.35;74.23
65685;BME280;52405;50.844;-1.062;2023-02-18T02:02:56;102611.19;;;11.53;73.88
65685;BME280;52405;50.844;-1.062;2023-02-18T02:05:22;102619.28;;;11.57;73.79
65685;BME280;52405;50.844;-1.062;2023-02-18T02:07:50;102608.50;;;11.51;74.08
65685;BME280;52405;50.844;-1.062;2023-02-18T02:10:17;102617.59;;;11.58;73.59
65685;BME280;52405;50.844;-1.062;2023-02-18T02:26:40;102606.97;;;11.55;73.25
65685;BME280;52405;50.844;-1.062;2023-02-18T02:48:15;102569.09;;;11.45;73.20
65685;BME280;52405;50.844;-1.062;2023-02-18T02:53:20;102574.47;;;11.48;72.76
65685;BME280;52405;50.844;-1.062;2023-02-18T02:55:47;102534.13;;;11.27;72.71
65685;BME280;52405;50.844;-1.062;2023-02-18T02:58:15;102554.00;;;11.40;72.44
65685;BME280;52405;50.844;-1.062;2023-02-18T03:01:08;102565.03;;;11.50;72.55
65685;BME280;52405;50.844;-1.062;2023-02-18T03:03:57;102556.44;;;11.51;72.60
65685;BME280;52405;50.844;-1.062;2023-02-18T03:14:57;102553.66;;;11.48;72.16
65685;BME280;52405;50.844;-1.062;2023-02-18T03:17:29;102552.56;;;11.45;72.17
65685;BME280;52405;50.844;-1.062;2023-02-18T03:20:30;102563.25;;;11.49;71.95
65685;BME280;52405;50.844;-1.062;2023-02-18T03:22:54;102552.47;;;11.43;71.99
65685;BME280;52405;50.844;-1.062;2023-02-18T03:25:22;102556.25;;;11.48;72.26
65685;BME280;52405;50.844;-1.062;2023-02-18T03:27:52;102536.47;;;11.37;71.98
65685;BME280;52405;50.844;-1.062;2023-02-18T03:30:30;102533.97;;;11.38;72.29
65685;BME280;52405;50.844;-1.062;2023-02-18T03:33:02;102542.34;;;11.48;72.07
65685;BME280;52405;50.844;-1.062;2023-02-18T03:35:31;102551.03;;;11.48;71.64
65685;BME280;52405;50.844;-1.062;2023-02-18T03:38:06;102538.66;;;11.44;71.34
65685;BME280;52405;50.844;-1.062;2023-02-18T03:40:33;102520.19;;;11.40;71.47
65685;BME280;52405;50.844;-1.062;2023-02-18T03:42:59;102530.13;;;11.47;71.37
65685;BME280;52405;50.844;-1.062;2023-02-18T03:45:25;102534.44;;;11.46;72.25
65685;BME280;52405;50.844;-1.062;2023-02-18T03:47:51;102496.28;;;11.32;71.68
65685;BME280;52405;50.844;-1.062;2023-02-18T03:50:17;102511.66;;;11.42;71.73
65685;BME280;52405;50.844;-1.062;2023-02-18T03:52:42;102521.53;;;11.48;71.89
65685;BME280;52405;50.844;-1.062;2023-02-18T03:55:10;102520.53;;;11.46;71.80
65685;BME280;52405;50.844;-1.062;2023-02-18T03:57:38;102501.78;;;11.36;71.88
65685;BME280;52405;50.844;-1.062;2023-02-18T04:00:04;102516.03;;;11.43;71.61
65685;BME280;52405;50.844;-1.062;2023-02-18T04:02:31;102506.25;;;11.39;71.28
65685;BME280;52405;50.844;-1.062;2023-02-18T04:04:56;102512.44;;;11.41;72.12
65685;BME280;52405;50.844;-1.062;2023-02-18T04:07:22;102501.88;;;11.38;71.62
65685;BME280;52405;50.844;-1.062;2023-02-18T04:09:47;102484.88;;;11.30;71.63
65685;BME280;52405;50.844;-1.062;2023-02-18T04:12:13;102502.88;;;11.40;71.42
65685;BME280;52405;50.844;-1.062;2023-02-18T04:14:38;102498.44;;;11.39;71.74
65685;BME280;52405;50.844;-1.062;2023-02-18T04:17:04;102479.06;;;11.34;71.45
65685;BME280;52405;50.844;-1.062;2023-02-18T04:19:29;102482.69;;;11.36;71.26
65685;BME280;52405;50.844;-1.062;2023-02-18T04:21:54;102488.88;;;11.38;71.68
65685;BME280;52405;50.844;-1.062;2023-02-18T04:24:20;102496.66;;;11.38;71.11
65685;BME280;52405;50.844;-1.062;2023-02-18T04:26:45;102470.69;;;11.25;71.24
65685;BME280;52405;50.844;-1.062;2023-02-18T04:29:11;102492.25;;;11.37;71.75
65685;BME280;52405;50.844;-1.062;2023-02-18T04:31:36;102485.44;;;11.39;71.14
65685;BME280;52405;50.844;-1.062;2023-02-18T04:34:02;102486.25;;;11.38;71.33
65685;BME280;52405;50.844;-1.062;2023-02-18T04:36:27;102485.53;;;11.41;71.19
65685;BME280;52405;50.844;-1.062;2023-02-18T04:38:53;102473.84;;;11.34;71.64
65685;BME280;52405;50.844;-1.062;2023-02-18T04:41:21;102483.13;;;11.44;71.37
65685;BME280;52405;50.844;-1.062;2023-02-18T04:43:50;102491.81;;;11.44;71.38
65685;BME280;52405;50.844;-1.062;2023-02-18T04:46:16;102465.88;;;11.31;71.38
65685;BME280;52405;50.844;-1.062;2023-02-18T04:48:42;102499.63;;;11.44;71.64
65685;BME280;52405;50.844;-1.062;2023-02-18T04:51:07;102478.16;;;11.33;71.26
65685;BME280;52405;50.844;-1.062;2023-02-18T04:53:35;102484.34;;;11.35;71.88
65685;BME280;52405;50.844;-1.062;2023-02-18T04:56:01;102497.66;;;11.40;71.73
65685;BME280;52405;50.844;-1.062;2023-02-18T04:58:26;102501.44;;;11.45;71.19
65685;BME280;52405;50.844;-1.062;2023-02-18T05:00:52;102500.81;;;11.49;71.13
65685;BME280;52405;50.844;-1.062;2023-02-18T05:03:18;102489.13;;;11.43;70.80
65685;BME280;52405;50.844;-1.062;2023-02-18T05:05:44;102487.41;;;11.43;71.05
65685;BME280;52405;50.844;-1.062;2023-02-18T05:08:10;102468.50;;;11.31;71.33
65685;BME280;52405;50.844;-1.062;2023-02-18T05:10:37;102482.06;;;11.40;71.41
65685;BME280;52405;50.844;-1.062;2023-02-18T05:13:05;102494.72;;;11.49;71.12
65685;BME280;52405;50.844;-1.062;2023-02-18T05:15:33;102485.63;;;11.42;71.32
65685;BME280;52405;50.844;-1.062;2023-02-18T05:17:58;102489.84;;;11.40;71.70
65685;BME280;52405;50.844;-1.062;2023-02-18T05:20:23;102483.81;;;11.41;71.87
65685;BME280;52405;50.844;-1.062;2023-02-18T05:22:49;102488.66;;;11.35;71.49
65685;BME280;52405;50.844;-1.062;2023-02-18T05:25:14;102489.75;;;11.38;71.20
65685;BME280;52405;50.844;-1.062;2023-02-18T05:27:40;102479.88;;;11.33;71.51
65685;BME280;52405;50.844;-1.062;2023-02-18T05:30:06;102481.84;;;11.37;72.37
65685;BME280;52405;50.844;-1.062;2023-02-18T05:32:31;102484.97;;;11.31;72.28
65685;BME280;52405;50.844;-1.062;2023-02-18T05:35:04;102492.06;;;11.34;72.35
65685;BME280;52405;50.844;-1.062;2023-02-18T05:37:32;102487.31;;;11.27;72.10
65685;BME280;52405;50.844;-1.062;2023-02-18T05:39:58;102495.28;;;11.30;72.26
65685;BME280;52405;50.844;-1.062;2023-02-18T05:42:24;102480.94;;;11.22;72.50
65685;BME280;52405;50.844;-1.062;2023-02-18T05:44:49;102478.22;;;11.20;72.56
65685;BME280;52405;50.844;-1.062;2023-02-18T05:47:15;102481.91;;;11.24;72.88
65685;BME280;52405;50.844;-1.062;2023-02-18T05:49:41;102479.31;;;11.24;72.29
65685;BME280;52405;50.844;-1.062;2023-02-18T05:52:08;102480.63;;;11.17;72.36
65685;BME280;52405;50.844;-1.062;2023-02-18T05:54:35;102481.47;;;11.16;72.72
65685;BME280;52405;50.844;-1.062;2023-02-18T05:57:01;102476.94;;;11.13;72.78
65685;BME280;52405;50.844;-1.062;2023-02-18T05:59:27;102475.97;;;11.11;72.81
65685;BME280;52405;50.844;-1.062;2023-02-18T06:01:52;102475.84;;;11.10;72.67
65685;BME280;52405;50.844;-1.062;2023-02-18T06:04:18;102450.63;;;10.94;73.25
65685;BME280;52405;50.844;-1.062;2023-02-18T06:06:44;102477.31;;;11.05;73.12
65685;BME280;52405;50.844;-1.062;2023-02-18T06:09:10;102453.22;;;10.94;73.07
65685;BME280;52405;50.844;-1.062;2023-02-18T06:11:35;102427.09;;;10.77;73.16
65685;BME280;52405;50.844;-1.062;2023-02-18T06:14:01;102444.44;;;10.92;73.67
65685;BME280;52405;50.844;-1.062;2023-02-18T06:16:27;102471.69;;;10.98;73.41
65685;BME280;52405;50.844;-1.062;2023-02-18T06:18:52;102466.75;;;10.88;73.17
65685;BME280;52405;50.844;-1.062;2023-02-18T06:21:18;102482.81;;;10.96;73.36
65685;BME280;52405;50.844;-1.062;2023-02-18T06:23:44;102472.22;;;10.93;73.19
65685;BME280;52405;50.844;-1.062;2023-02-18T06:26:09;102460.16;;;10.80;73.51
65685;BME280;52405;50.844;-1.062;2023-02-18T06:28:35;102416.34;;;10.58;73.64
65685;BME280;52405;50.844;-1.062;2023-02-18T06:31:03;102470.25;;;10.89;73.35
65685;BME280;52405;50.844;-1.062;2023-02-18T06:33:29;102462.25;;;10.86;73.47
65685;BME280;52405;50.844;-1.062;2023-02-18T06:35:55;102475.25;;;10.86;73.81
65685;BME280;52405;50.844;-1.062;2023-02-18T06:38:21;102451.88;;;10.72;73.79
65685;BME280;52405;50.844;-1.062;2023-02-18T06:40:47;102479.34;;;10.82;74.04
65685;BME280;52405;50.844;-1.062;2023-02-18T06:43:15;102475.84;;;10.82;74.05
65685;BME280;52405;50.844;-1.062;2023-02-18T06:45:40;102478.47;;;10.82;74.14
65685;BME280;52405;50.844;-1.062;2023-02-18T06:48:06;102473.06;;;10.78;73.76
65685;BME280;52405;50.844;-1.062;2023-02-18T06:50:31;102473.06;;;10.78;74.13
65685;BME280;52405;50.844;-1.062;2023-02-18T06:52:57;102474.66;;;10.76;73.51
65685;BME280;52405;50.844;-1.062;2023-02-18T06:55:24;102474.56;;;10.75;74.03
65685;BME280;52405;50.844;-1.062;2023-02-18T06:57:52;102443.63;;;10.65;74.24
65685;BME280;52405;50.844;-1.062;2023-02-18T07:00:19;102477.97;;;10.74;73.76
65685;BME280;52405;50.844;-1.062;2023-02-18T07:02:45;102446.84;;;10.60;73.87
65685;BME280;52405;50.844;-1.062;2023-02-18T07:05:10;102474.28;;;10.70;74.13
65685;BME280;52405;50.844;-1.062;2023-02-18T07:07:35;102450.31;;;10.61;74.33
65685;BME280;52405;50.844;-1.062;2023-02-18T07:10:02;102478.09;;;10.75;74.03
65685;BME280;52405;50.844;-1.062;2023-02-18T07:12:28;102475.66;;;10.78;74.12
65685;BME280;52405;50.844;-1.062;2023-02-18T07:14:53;102470.56;;;10.80;73.98
65685;BME280;52405;50.844;-1.062;2023-02-18T07:17:19;102479.34;;;10.82;74.02
65685;BME280;52405;50.844;-1.062;2023-02-18T07:19:44;102471.66;;;10.84;74.16
65685;BME280;52405;50.844;-1.062;2023-02-18T07:22:10;102485.63;;;10.86;74.28
65685;BME280;52405;50.844;-1.062;2023-02-18T07:24:35;102459.97;;;10.77;73.99
65685;BME280;52405;50.844;-1.062;2023-02-18T07:27:01;102444.88;;;10.71;73.75
65685;BME280;52405;50.844;-1.062;2023-02-18T07:29:28;102453.88;;;10.76;73.73
65685;BME280;52405;50.844;-1.062;2023-02-18T07:31:54;102478.81;;;10.88;73.78
65685;BME280;52405;50.844;-1.062;2023-02-18T07:34:19;102470.56;;;10.80;74.27
65685;BME280;52405;50.844;-1.062;2023-02-18T07:36:47;102480.53;;;10.87;73.87
65685;BME280;52405;50.844;-1.062;2023-02-18T07:39:13;102464.16;;;10.75;74.30
65685;BME280;52405;50.844;-1.062;2023-02-18T07:41:38;102492.03;;;10.91;74.19
65685;BME280;52405;50.844;-1.062;2023-02-18T07:44:04;102468.94;;;10.82;73.97
65685;BME280;52405;50.844;-1.062;2023-02-18T07:46:31;102477.41;;;10.93;74.15
65685;BME280;52405;50.844;-1.062;2023-02-18T07:48:57;102479.41;;;10.97;74.35
65685;BME280;52405;50.844;-1.062;2023-02-18T07:51:22;102461.56;;;10.88;74.42
65685;BME280;52405;50.844;-1.062;2023-02-18T07:53:48;102490.47;;;11.08;74.00
65685;BME280;52405;50.844;-1.062;2023-02-18T07:56:16;102477.19;;;11.03;73.95
65685;BME280;52405;50.844;-1.062;2023-02-18T07:58:42;102492.84;;;11.18;74.21
65685;BME280;52405;50.844;-1.062;2023-02-18T08:01:13;102492.22;;;11.22;73.85
65685;BME280;52405;50.844;-1.062;2023-02-18T08:03:39;102481.91;;;11.24;74.17
65685;BME280;52405;50.844;-1.062;2023-02-18T08:06:12;102497.09;;;11.31;74.18
65685;BME280;52405;50.844;-1.062;2023-02-18T08:08:43;102489.56;;;11.35;74.18
65685;BME280;52405;50.844;-1.062;2023-02-18T08:11:08;102471.00;;;11.29;74.15
65685;BME280;52405;50.844;-1.062;2023-02-18T08:13:33;102482.69;;;11.36;73.68
65685;BME280;52405;50.844;-1.062;2023-02-18T08:15:59;102459.41;;;11.24;73.60
65685;BME280;52405;50.844;-1.062;2023-02-18T08:18:25;102474.34;;;11.42;73.32
65685;BME280;52405;50.844;-1.062;2023-02-18T08:20:51;102473.00;;;11.48;73.79
65685;BME280;52405;50.844;-1.062;2023-02-18T08:23:21;102484.78;;;11.56;73.40
65685;BME280;52405;50.844;-1.062;2023-02-18T08:25:51;102500.84;;;11.64;73.68
65685;BME280;52405;50.844;-1.062;2023-02-18T08:28:20;102497.50;;;11.67;73.30
65685;BME280;52405;50.844;-1.062;2023-02-18T08:30:51;102503.78;;;11.70;73.46
65685;BME280;52405;50.844;-1.062;2023-02-18T08:33:20;102497.44;;;11.65;73.48
65685;BME280;52405;50.844;-1.062;2023-02-18T08:35:50;102498.88;;;11.75;73.34
65685;BME280;52405;50.844;-1.062;2023-02-18T08:38:16;102504.25;;;11.78;73.34
65685;BME280;52405;50.844;-1.062;2023-02-18T08:40:42;102503.63;;;11.82;73.58
65685;BME280;52405;50.844;-1.062;2023-02-18T08:43:09;102504.72;;;11.86;73.65
65685;BME280;52405;50.844;-1.062;2023-02-18T08:45:36;102504.00;;;11.88;73.69
65685;BME280;52405;50.844;-1.062;2023-02-18T08:48:03;102492.06;;;11.77;72.73
65685;BME280;52405;50.844;-1.062;2023-02-18T08:50:29;102489.25;;;11.89;73.30
65685;BME280;52405;50.844;-1.062;2023-02-18T08:52:55;102498.78;;;11.88;73.07
65685;BME280;52405;50.844;-1.062;2023-02-18T08:55:21;102505.81;;;11.89;73.28
65685;BME280;52405;50.844;-1.062;2023-02-18T08:57:51;102517.22;;;11.91;72.76
65685;BME280;52405;50.844;-1.062;2023-02-18T09:00:19;102499.31;;;11.83;73.23
65685;BME280;52405;50.844;-1.062;2023-02-18T09:02:45;102511.00;;;11.89;73.39
65685;BME280;52405;50.844;-1.062;2023-02-18T09:05:13;102509.19;;;11.88;73.44
65685;BME280;52405;50.844;-1.062;2023-02-18T09:07:39;102511.00;;;11.89;73.05
65685;BME280;52405;50.844;-1.062;2023-02-18T09:10:05;102487.38;;;11.86;72.71
65685;BME280;52405;50.844;-1.062;2023-02-18T09:12:31;102480.22;;;11.82;73.26
65685;BME280;52405;50.844;-1.062;2023-02-18T09:14:59;102489.25;;;11.89;73.26
65685;BME280;52405;50.844;-1.062;2023-02-18T09:17:25;102466.47;;;11.85;73.14
65685;BME280;52405;50.844;-1.062;2023-02-18T09:19:54;102455.84;;;11.82;73.49
65685;BME280;52405;50.844;-1.062;2023-02-18T09:22:22;102483.91;;;12.01;73.01
65685;BME280;52405;50.844;-1.062;2023-02-18T09:24:47;102478.06;;;12.05;73.09
65685;BME280;52405;50.844;-1.062;2023-02-18T09:27:13;102472.13;;;12.07;73.50
65685;BME280;52405;50.844;-1.062;2023-02-18T09:29:39;102469.06;;;12.14;73.08
65685;BME280;52405;50.844;-1.062;2023-02-18T09:32:06;102491.50;;;12.27;72.61
65685;BME280;52405;50.844;-1.062;2023-02-18T09:34:35;102483.09;;;12.31;72.82
65685;BME280;52405;50.844;-1.062;2023-02-18T09:37:03;102490.34;;;12.37;72.92
65685;BME280;52405;50.844;-1.062;2023-02-18T09:39:29;102488.16;;;12.45;72.01
65685;BME280;52405;50.844;-1.062;2023-02-18T09:42:03;102485.88;;;12.51;72.78
65685;BME280;52405;50.844;-1.062;2023-02-18T09:44:31;102483.97;;;12.63;72.40
65685;BME280;52405;50.844;-1.062;2023-02-18T09:49:37;102477.72;;;12.76;72.39
65685;BME280;52405;50.844;-1.062;2023-02-18T09:52:12;102492.41;;;12.90;71.39
65685;BME280;52405;50.844;-1.062;2023-02-18T09:54:39;102477.75;;;12.92;71.57
65685;BME280;52405;50.844;-1.062;2023-02-18T09:57:06;102453.03;;;12.86;70.99
65685;BME280;52405;50.844;-1.062;2023-02-18T09:59:39;102495.19;;;13.10;70.86
65685;BME280;52405;50.844;-1.062;2023-02-18T10:02:09;102497.09;;;13.13;71.44
65685;BME280;52405;50.844;-1.062;2023-02-18T10:04:42;102445.47;;;12.90;70.40
65685;BME280;52405;50.844;-1.062;2023-02-18T10:07:20;102497.50;;;13.20;70.61
65685;BME280;52405;50.844;-1.062;2023-02-18T10:09:51;102496.84;;;13.24;70.31
65685;BME280;52405;50.844;-1.062;2023-02-18T10:12:20;102504.22;;;13.32;70.87
65685;BME280;52405;50.844;-1.062;2023-02-18T10:14:54;102493.94;;;13.35;69.91
65685;BME280;52405;50.844;-1.062;2023-02-18T10:17:22;102491.06;;;13.46;70.27
65685;BME280;52405;50.844;-1.062;2023-02-18T10:19:50;102492.50;;;13.58;70.35
65685;BME280;52405;50.844;-1.062;2023-02-18T10:22:19;102479.72;;;13.62;69.63
65685;BME280;52405;50.844;-1.062;2023-02-18T10:24:50;102489.44;;;13.83;69.59
65685;BME280;52405;50.844;-1.062;2023-02-18T10:27:29;102486.25;;;13.88;68.61
65685;BME280;52405;50.844;-1.062;2023-02-18T10:30:08;102476.09;;;13.95;68.87
65685;BME280;52405;50.844;-1.062;2023-02-18T10:32:39;102483.50;;;14.03;68.14
65685;BME280;52405;50.844;-1.062;2023-02-18T10:43:31;102489.75;;;14.59;67.94
65685;BME280;52405;50.844;-1.062;2023-02-18T10:48:55;102494.47;;;14.86;66.46
65685;BME280;52405;50.844;-1.062;2023-02-18T10:51:30;102494.00;;;14.95;66.58
65685;BME280;52405;50.844;-1.062;2023-02-18T10:53:57;102498.34;;;14.94;66.32
65685;BME280;52405;50.844;-1.062;2023-02-18T10:56:45;102500.88;;;14.93;65.84
65685;BME280;52405;50.844;-1.062;2023-02-18T11:01:43;102499.41;;;14.80;66.02
65685;BME280;52405;50.844;-1.062;2023-02-18T11:04:13;102503.72;;;14.79;65.71
65685;BME280;52405;50.844;-1.062;2023-02-18T11:06:45;102496.81;;;14.80;65.67
65685;BME280;52405;50.844;-1.062;2023-02-18T11:12:00;102488.59;;;14.72;65.18
65685;BME280;52405;50.844;-1.062;2023-02-18T11:14:47;102508.00;;;14.77;65.37
65685;BME280;52405;50.844;-1.062;2023-02-18T11:17:20;102511.13;;;14.70;65.96
65685;BME280;52405;50.844;-1.062;2023-02-18T11:19:56;102513.56;;;14.65;65.67
65685;BME280;52405;50.844;-1.062;2023-02-18T11:22:34;102502.81;;;14.59;66.27
65685;BME280;52405;50.844;-1.062;2023-02-18T11:25:03;102496.97;;;14.47;65.69
65685;BME280;52405;50.844;-1.062;2023-02-18T11:27:45;102499.66;;;14.49;65.56
65685;BME280;52405;50.844;-1.062;2023-02-18T11:32:49;102490.75;;;14.45;66.45
65685;BME280;52405;50.844;-1.062;2023-02-18T11:35:20;102469.09;;;14.30;66.54
65685;BME280;52405;50.844;-1.062;2023-02-18T11:37:47;102501.75;;;14.38;66.05
65685;BME280;52405;50.844;-1.062;2023-02-18T11:40:35;102500.84;;;14.37;65.75
65685;BME280;52405;50.844;-1.062;2023-02-18T11:45:31;102495.31;;;14.31;66.79
65685;BME280;52405;50.844;-1.062;2023-02-18T11:48:07;102485.28;;;14.22;66.05
65685;BME280;52405;50.844;-1.062;2023-02-18T11:50:33;102492.03;;;14.17;66.37
65685;BME280;52405;50.844;-1.062;2023-02-18T11:52:59;102500.97;;;14.22;66.59
65685;BME280;52405;50.844;-1.062;2023-02-18T11:55:27;102508.69;;;14.19;66.60
65685;BME280;52405;50.844;-1.062;2023-02-18T11:57:55;102509.41;;;14.17;67.21
65685;BME280;52405;50.844;-1.062;2023-02-18T12:06:02;102485.06;;;14.00;66.98
65685;BME280;52405;50.844;-1.062;2023-02-18T12:08:33;102488.44;;;13.97;67.13
65685;BME280;52405;50.844;-1.062;2023-02-18T12:11:16;102487.06;;;13.87;67.03
65685;BME280;52405;50.844;-1.062;2023-02-18T12:13:50;102498.81;;;13.96;67.31
65685;BME280;52405;50.844;-1.062;2023-02-18T12:16:27;102498.88;;;13.97;67.45
65685;BME280;52405;50.844;-1.062;2023-02-18T12:19:04;102505.06;;;13.99;67.43
65685;BME280;52405;50.844;-1.062;2023-02-18T12:24:49;102495.59;;;14.01;67.42
65685;BME280;52405;50.844;-1.062;2023-02-18T12:35:56;102476.34;;;13.99;67.98
65685;BME280;52405;50.844;-1.062;2023-02-18T12:41:34;102473.47;;;13.95;67.81
65685;BME280;52405;50.844;-1.062;2023-02-18T13:06:46;102462.97;;;14.29;68.15
65685;BME280;52405;50.844;-1.062;2023-02-18T13:15:00;102464.84;;;14.32;67.54
65685;BME280;52405;50.844;-1.062;2023-02-18T13:17:33;102452.59;;;14.31;67.72
65685;BME280;52405;50.844;-1.062;2023-02-18T13:20:27;102424.28;;;14.22;67.57
65685;BME280;52405;50.844;-1.062;2023-02-18T13:22:50;102443.63;;;14.25;67.74
65685;BME280;52405;50.844;-1.062;2023-02-18T13:25:18;102427.75;;;14.21;67.54
65685;BME280;52405;50.844;-1.062;2023-02-18T13:36:20;102419.91;;;14.03;67.69
65685;BME280;52405;50.844;-1.062;2023-02-18T13:39:13;102409.97;;;13.96;68.32
65685;BME280;52405;50.844;-1.062;2023-02-18T13:41:45;102422.97;;;13.94;68.11
65685;BME280;52405;50.844;-1.062;2023-02-18T13:46:51;102417.13;;;13.82;68.18
65685;BME280;52405;50.844;-1.062;2023-02-18T13:49:20;102401.53;;;13.83;68.85
65685;BME280;52405;50.844;-1.062;2023-02-18T13:51:49;102401.41;;;13.80;68.24
65685;BME280;52405;50.844;-1.062;2023-02-18T13:56:57;102412.88;;;13.66;69.12
65685;BME280;52405;50.844;-1.062;2023-02-18T13:59:34;102374.28;;;13.42;68.54
65685;BME280;52405;50.844;-1.062;2023-02-18T14:07:43;102354.97;;;13.39;68.62
65685;BME280;52405;50.844;-1.062;2023-02-18T14:26:08;102387.50;;;13.63;69.75
65685;BME280;52405;50.844;-1.062;2023-02-18T14:28:35;102391.06;;;13.65;69.03
65685;BME280;52405;50.844;-1.062;2023-02-18T14:39:29;102399.16;;;13.70;69.05
65685;BME280;52405;50.844;-1.062;2023-02-18T14:45:24;102352.28;;;13.55;69.44
65685;BME280;52405;50.844;-1.062;2023-02-18T14:50:20;102394.22;;;13.76;69.33
65685;BME280;52405;50.844;-1.062;2023-02-18T14:52:53;102389.91;;;13.77;69.74
65685;BME280;52405;50.844;-1.062;2023-02-18T14:55:31;102392.44;;;13.75;69.26
65685;BME280;52405;50.844;-1.062;2023-02-18T14:58:04;102336.91;;;13.43;69.43
65685;BME280;52405;50.844;-1.062;2023-02-18T15:00:34;102396.53;;;13.70;69.08
65685;BME280;52405;50.844;-1.062;2023-02-18T15:03:03;102376.41;;;13.67;69.50
65685;BME280;52405;50.844;-1.062;2023-02-18T15:05:30;102389.66;;;13.72;69.79
65685;BME280;52405;50.844;-1.062;2023-02-18T15:07:59;102397.50;;;13.72;69.25
65685;BME280;52405;50.844;-1.062;2023-02-18T15:10:35;102372.75;;;13.64;69.40
65685;BME280;52405;50.844;-1.062;2023-02-18T15:13:04;102389.97;;;13.78;70.17
65685;BME280;52405;50.844;-1.062;2023-02-18T15:15:33;102382.22;;;13.80;69.60
65685;BME280;52405;50.844;-1.062;2023-02-18T15:18:01;102331.41;;;13.55;69.50
65685;BME280;52405;50.844;-1.062;2023-02-18T15:20:31;102390.97;;;13.80;69.14
65685;BME280;52405;50.844;-1.062;2023-02-18T15:22:58;102384.53;;;13.74;69.06
65685;BME280;52405;50.844;-1.062;2023-02-18T15:25:24;102378.78;;;13.63;69.86
65685;BME280;52405;50.844;-1.062;2023-02-18T15:27:51;102382.50;;;13.68;69.51
65685;BME280;52405;50.844;-1.062;2023-02-18T15:30:26;102382.34;;;13.65;70.03
65685;BME280;52405;50.844;-1.062;2023-02-18T15:32:58;102381.22;;;13.60;69.75
65685;BME280;52405;50.844;-1.062;2023-02-18T15:35:29;102368.56;;;13.49;70.23
65685;BME280;52405;50.844;-1.062;2023-02-18T15:37:57;102379.13;;;13.53;70.06